createdAt,value
2023-05-19T00:00:59.149Z,2.00
2023-05-19T00:03:27.437Z,1.00
2023-05-19T00:05:59.199Z,2.00
2023-05-19T00:08:31.420Z,2.00
2023-05-19T00:10:59.617Z,1.00
2023-05-19T00:13:28.351Z,2.00
2023-05-19T00:15:56.667Z,2.00
2023-05-19T00:18:24.661Z,1.00
2023-05-19T00:20:52.605Z,2.00
2023-05-19T00:23:20.557Z,1.00
2023-05-19T00:25:48.470Z,3.00
2023-05-19T00:28:16.365Z,1.00
2023-05-19T00:30:44.415Z,1.50
2023-05-19T00:33:12.588Z,2.00
2023-05-19T00:35:41.117Z,2.00
2023-05-19T00:38:09.039Z,2.00
2023-05-19T00:40:36.921Z,2.00
2023-05-19T00:43:08.561Z,1.50
2023-05-19T00:45:37.083Z,1.00
2023-05-19T00:48:06.319Z,2.00
2023-05-19T00:53:02.722Z,2.00
2023-05-19T00:55:33.217Z,2.00
2023-05-19T00:58:01.833Z,2.00
2023-05-19T01:00:31.029Z,2.00
2023-05-19T01:02:59.342Z,2.00
2023-05-19T01:05:27.360Z,3.00
2023-05-19T01:07:56.600Z,2.00
2023-05-19T01:10:24.586Z,0.00
2023-05-19T01:12:52.510Z,2.00
2023-05-19T01:15:20.618Z,4.00
2023-05-19T01:20:27.586Z,2.00
2023-05-19T01:23:08.417Z,2.00
2023-05-19T01:26:07.184Z,3.00
2023-05-19T01:29:00.192Z,1.00
2023-05-19T01:31:29.009Z,2.00
2023-05-19T01:33:58.672Z,3.00
2023-05-19T01:36:28.005Z,3.00
2023-05-19T01:38:58.504Z,4.00
2023-05-19T01:41:28.692Z,2.00
2023-05-19T01:46:25.684Z,1.00
2023-05-19T01:51:23.064Z,2.00
2023-05-19T01:53:51.429Z,3.00
2023-05-19T01:56:31.440Z,2.50
2023-05-19T01:59:10.684Z,2.00
2023-05-19T02:01:51.695Z,1.00
2023-05-19T02:04:44.288Z,2.00
2023-05-19T02:07:42.879Z,2.00
2023-05-19T02:10:27.435Z,2.50
2023-05-19T02:12:58.904Z,3.00
2023-05-19T02:15:35.243Z,3.00
2023-05-19T02:18:04.748Z,2.00
2023-05-19T02:20:33.075Z,2.00
2023-05-19T02:23:01.353Z,3.00
2023-05-19T02:25:29.274Z,3.00
2023-05-19T02:27:58.743Z,2.00
2023-05-19T02:30:26.732Z,1.50
2023-05-19T02:32:55.614Z,3.00
2023-05-19T02:35:23.516Z,2.50
2023-05-19T02:40:20.463Z,3.00
2023-05-19T02:42:48.354Z,3.00
2023-05-19T02:45:16.738Z,2.00
2023-05-19T02:47:44.835Z,2.00
2023-05-19T02:50:12.830Z,4.00
2023-05-19T02:55:09.139Z,2.00
2023-05-19T02:57:37.041Z,2.00
2023-05-19T03:02:36.980Z,3.00
2023-05-19T03:05:05.476Z,3.00
2023-05-19T03:07:33.886Z,3.00
2023-05-19T03:10:06.687Z,2.50
2023-05-19T03:12:34.948Z,3.00
2023-05-19T03:15:03.115Z,2.00
2023-05-19T03:17:34.278Z,3.00
2023-05-19T03:20:02.738Z,1.50
2023-05-19T03:22:30.813Z,2.00
2023-05-19T03:24:58.774Z,3.00
2023-05-19T03:27:27.140Z,3.00
2023-05-19T03:29:55.999Z,2.00
2023-05-19T03:32:24.735Z,2.00
2023-05-19T03:34:53.264Z,2.00
2023-05-19T03:37:21.555Z,2.00
2023-05-19T03:39:49.539Z,2.00
2023-05-19T03:42:18.960Z,1.00
2023-05-19T03:44:47.059Z,2.00
2023-05-19T03:47:15.042Z,1.00
2023-05-19T03:50:12.156Z,2.00
2023-05-19T03:53:02.914Z,2.00
2023-05-19T03:55:33.891Z,2.00
2023-05-19T03:58:02.626Z,2.00
2023-05-19T04:00:31.062Z,2.50
2023-05-19T04:03:00.650Z,1.00
2023-05-19T04:05:29.074Z,2.00
2023-05-19T04:07:57.067Z,2.50
2023-05-19T04:10:24.947Z,3.00
2023-05-19T04:12:55.957Z,3.00
2023-05-19T04:15:23.923Z,3.00
2023-05-19T04:17:51.962Z,3.00
2023-05-19T04:22:47.696Z,3.00
2023-05-19T04:25:15.618Z,3.00
2023-05-19T04:27:43.615Z,2.00
2023-05-19T04:30:12.295Z,3.00
2023-05-19T04:35:09.652Z,3.00
2023-05-19T04:37:39.262Z,3.00
2023-05-19T04:40:11.261Z,3.50
2023-05-19T04:42:43.211Z,3.00
2023-05-19T04:45:14.025Z,4.00
2023-05-19T04:47:44.523Z,2.50
2023-05-19T04:50:13.100Z,3.00
2023-05-19T04:52:45.825Z,4.00
2023-05-19T04:55:13.863Z,3.50
2023-05-19T04:57:41.948Z,3.00
2023-05-19T05:00:13.788Z,4.00
2023-05-19T05:02:53.345Z,4.00
2023-05-19T05:05:22.038Z,4.00
2023-05-19T05:07:50.267Z,4.00
2023-05-19T05:12:47.280Z,4.00
2023-05-19T05:15:15.881Z,3.50
2023-05-19T05:17:45.519Z,5.00
2023-05-19T05:20:14.536Z,3.00
2023-05-19T05:22:42.991Z,4.00
2023-05-19T05:27:39.586Z,3.00
2023-05-19T05:30:08.764Z,5.50
2023-05-19T05:32:37.936Z,5.00
2023-05-19T05:35:10.043Z,5.00
2023-05-19T05:37:39.146Z,4.00
2023-05-19T05:40:07.944Z,4.00
2023-05-19T05:42:36.546Z,5.50
2023-05-19T05:45:04.872Z,4.00
2023-05-19T05:47:33.264Z,4.00
2023-05-19T05:50:01.573Z,4.00
2023-05-19T05:52:47.390Z,3.00
2023-05-19T05:55:17.791Z,5.00
2023-05-19T06:00:16.685Z,7.00
2023-05-19T06:02:50.706Z,5.00
2023-05-19T06:05:19.915Z,7.00
2023-05-19T06:07:48.742Z,4.50
2023-05-19T06:10:21.432Z,5.00
2023-05-19T06:12:50.601Z,6.50
2023-05-19T06:15:18.657Z,5.00
2023-05-19T06:17:52.276Z,5.00
2023-05-19T06:20:20.753Z,5.00
2023-05-19T06:22:48.858Z,7.00
2023-05-19T06:27:46.624Z,8.00
2023-05-19T06:30:15.122Z,7.00
2023-05-19T06:32:56.718Z,6.50
2023-05-19T06:35:25.772Z,7.50
2023-05-19T06:37:55.870Z,9.00
2023-05-19T06:42:51.820Z,7.00
2023-05-19T06:45:42.567Z,7.00
2023-05-19T06:48:10.784Z,9.00
2023-05-19T06:50:39.392Z,10.00
2023-05-19T06:55:43.984Z,8.50
2023-05-19T06:58:20.324Z,8.00
2023-05-19T07:03:17.508Z,10.00
2023-05-19T07:05:46.720Z,10.50
2023-05-19T07:08:14.798Z,10.00
2023-05-19T07:10:43.906Z,10.00
2023-05-19T07:13:13.532Z,10.00
2023-05-19T07:15:42.565Z,8.50
2023-05-19T07:18:10.825Z,10.00
2023-05-19T07:20:38.763Z,8.00
2023-05-19T07:23:06.932Z,9.00
2023-05-19T07:25:34.854Z,9.50
2023-05-19T07:28:02.966Z,10.00
2023-05-19T07:32:59.495Z,9.00
2023-05-19T07:35:27.476Z,7.00
2023-05-19T07:37:55.732Z,9.33
2023-05-19T07:40:23.696Z,8.00
2023-05-19T07:42:51.949Z,8.00
2023-05-19T07:45:20.072Z,8.00
2023-05-19T07:47:48.058Z,5.00
2023-05-19T07:50:16.464Z,9.00
2023-05-19T07:52:44.434Z,6.00
2023-05-19T07:55:12.468Z,8.00
2023-05-19T07:57:40.597Z,7.00
2023-05-19T08:00:12.678Z,8.00
2023-05-19T08:02:42.144Z,8.50
2023-05-19T08:05:10.711Z,9.50
2023-05-19T08:07:38.683Z,8.00
2023-05-19T08:10:07.163Z,8.00
2023-05-19T08:12:35.104Z,10.00
2023-05-19T08:15:03.185Z,13.00
2023-05-19T08:17:31.100Z,11.00
2023-05-19T08:20:00.419Z,12.00
2023-05-19T08:22:28.335Z,8.50
2023-05-19T08:24:57.101Z,11.00
2023-05-19T08:27:24.970Z,12.50
2023-05-19T08:29:52.821Z,10.00
2023-05-19T08:32:20.846Z,12.00
2023-05-19T08:34:48.975Z,11.00
2023-05-19T08:37:16.989Z,12.00
2023-05-19T08:39:44.814Z,8.00
2023-05-19T08:42:12.857Z,13.00
2023-05-19T08:44:42.299Z,11.50
2023-05-19T08:47:14.113Z,13.00
2023-05-19T08:49:46.592Z,15.00
2023-05-19T08:52:23.517Z,16.50
2023-05-19T08:57:29.358Z,21.00
2023-05-19T08:59:58.894Z,19.50
2023-05-19T09:02:28.302Z,20.00
2023-05-19T09:04:57.807Z,19.50
2023-05-19T09:07:27.490Z,21.00
2023-05-19T09:12:23.319Z,19.00
2023-05-19T09:14:51.405Z,20.50
2023-05-19T09:17:19.672Z,18.00
2023-05-19T09:19:50.395Z,16.00
2023-05-19T09:22:21.277Z,15.00
2023-05-19T09:24:49.867Z,17.00
2023-05-19T09:27:25.104Z,16.00
2023-05-19T09:29:52.950Z,16.50
2023-05-19T09:34:55.227Z,15.00
2023-05-19T09:37:24.659Z,18.00
2023-05-19T09:39:53.567Z,15.50
2023-05-19T09:42:29.934Z,19.00
2023-05-19T09:45:04.985Z,18.00
2023-05-19T09:47:41.400Z,19.00
2023-05-19T09:52:43.750Z,19.50
2023-05-19T09:55:13.321Z,20.00
2023-05-19T09:57:41.674Z,21.00
2023-05-19T10:00:21.104Z,9.00
2023-05-19T10:05:20.724Z,20.00
2023-05-19T10:07:54.719Z,16.00
2023-05-19T10:12:51.073Z,17.00
2023-05-19T10:15:29.519Z,18.00
2023-05-19T10:17:57.732Z,16.00
2023-05-19T10:22:54.598Z,15.00
2023-05-19T10:25:22.686Z,16.00
2023-05-19T10:30:31.310Z,16.00
2023-05-19T10:33:01.891Z,18.00
2023-05-19T10:35:59.632Z,16.00
2023-05-19T10:38:48.829Z,14.00
2023-05-19T10:44:00.142Z,12.00
2023-05-19T10:46:29.290Z,12.00
2023-05-19T10:48:57.369Z,10.50
2023-05-19T10:51:34.853Z,11.00
2023-05-19T10:54:11.038Z,11.00
2023-05-19T10:56:42.643Z,9.50
2023-05-19T10:59:31.780Z,12.00
2023-05-19T11:02:08.267Z,12.00
2023-05-19T11:04:51.859Z,9.00
2023-05-19T11:07:22.531Z,8.00
2023-05-19T11:09:52.451Z,10.00
2023-05-19T11:12:25.074Z,10.00
2023-05-19T11:17:25.419Z,10.00
2023-05-19T11:19:56.081Z,11.00
2023-05-19T11:22:28.526Z,10.00
2023-05-19T11:24:57.535Z,9.00
2023-05-19T11:27:33.699Z,11.00
2023-05-19T11:30:09.628Z,10.50
2023-05-19T11:32:39.612Z,11.50
2023-05-19T11:35:08.890Z,11.00
2023-05-19T11:37:37.118Z,6.00
2023-05-19T11:40:07.451Z,10.00
2023-05-19T11:42:37.195Z,8.00
2023-05-19T11:45:06.152Z,11.50
2023-05-19T11:47:45.946Z,10.00
2023-05-19T11:50:22.250Z,9.00
2023-05-19T11:52:51.755Z,9.00
2023-05-19T11:55:23.817Z,4.00
2023-05-19T12:00:40.236Z,10.00
2023-05-19T12:08:12.936Z,13.00
2023-05-19T12:10:41.492Z,12.00
2023-05-19T12:13:10.340Z,12.00
2023-05-19T12:15:39.278Z,12.00
2023-05-19T12:18:07.769Z,16.00
2023-05-19T12:20:36.604Z,15.00
2023-05-19T12:23:05.103Z,14.50
2023-05-19T12:25:33.596Z,13.00
2023-05-19T12:33:03.667Z,14.50
2023-05-19T12:38:08.154Z,17.50
2023-05-19T12:40:37.878Z,18.00
2023-05-19T12:43:07.004Z,16.00
2023-05-19T12:48:18.262Z,14.00
2023-05-19T12:50:46.512Z,15.00
2023-05-19T12:55:45.466Z,17.00
2023-05-19T12:58:13.660Z,17.00
2023-05-19T13:00:49.986Z,18.00
2023-05-19T13:03:20.324Z,17.50
2023-05-19T13:05:51.200Z,18.50
2023-05-19T13:08:21.722Z,19.50
2023-05-19T13:10:50.453Z,17.00
2023-05-19T13:13:19.512Z,17.50
2023-05-19T13:15:50.893Z,18.00
2023-05-19T13:18:19.661Z,12.00
2023-05-19T13:20:50.331Z,17.00
2023-05-19T13:23:18.908Z,15.00
2023-05-19T13:25:46.990Z,13.00
2023-05-19T13:28:15.199Z,12.00
2023-05-19T13:30:44.378Z,15.00
2023-05-19T13:33:12.705Z,11.00
2023-05-19T13:35:41.074Z,13.00
2023-05-19T13:38:10.607Z,15.00
2023-05-19T13:40:40.220Z,12.00
2023-05-19T13:43:09.187Z,12.00
2023-05-19T13:45:37.540Z,11.00
2023-05-19T13:50:35.743Z,11.00
2023-05-19T13:53:04.076Z,12.00
2023-05-19T13:55:33.033Z,13.50
2023-05-19T13:58:01.176Z,14.50
2023-05-19T14:00:31.061Z,14.00
2023-05-19T14:05:29.174Z,13.00
2023-05-19T14:07:58.200Z,16.00
2023-05-19T14:10:26.645Z,16.00
2023-05-19T14:15:41.412Z,14.00
2023-05-19T14:18:09.516Z,9.50
2023-05-19T14:20:37.626Z,11.00
2023-05-19T14:23:05.927Z,10.50
2023-05-19T14:25:34.110Z,14.00
2023-05-19T14:28:02.073Z,14.00
2023-05-19T14:30:30.131Z,13.00
2023-05-19T14:32:58.068Z,13.00
2023-05-19T14:35:26.652Z,11.50
2023-05-19T14:37:54.502Z,11.50
2023-05-19T14:40:22.442Z,13.00
2023-05-19T14:42:50.559Z,13.00
2023-05-19T14:45:18.507Z,15.00
2023-05-19T14:47:47.721Z,13.50
2023-05-19T14:50:16.093Z,11.50
2023-05-19T14:52:44.101Z,11.50
2023-05-19T14:57:39.918Z,12.00
2023-05-19T15:02:38.607Z,10.00
2023-05-19T15:05:07.849Z,10.00
2023-05-19T15:07:36.154Z,11.00
2023-05-19T15:10:04.662Z,10.00
2023-05-19T15:12:32.560Z,12.00
2023-05-19T15:15:00.857Z,11.00
2023-05-19T15:19:56.744Z,12.00
2023-05-19T15:22:24.659Z,12.00
2023-05-19T15:24:52.564Z,11.00
2023-05-19T15:27:21.192Z,11.50
2023-05-19T15:29:49.157Z,10.00
2023-05-19T15:32:19.118Z,9.50
2023-05-19T15:34:47.122Z,9.00
2023-05-19T15:37:15.413Z,8.00
2023-05-19T15:39:43.383Z,9.00
2023-05-19T15:42:11.395Z,10.00
2023-05-19T15:44:39.347Z,10.50
2023-05-19T15:47:07.373Z,8.00
2023-05-19T15:49:35.377Z,12.00
2023-05-19T15:52:04.268Z,11.00
2023-05-19T15:54:32.238Z,10.00
2023-05-19T15:57:00.154Z,11.00
2023-05-19T15:59:28.097Z,8.00
2023-05-19T16:01:56.296Z,9.00
2023-05-19T16:04:24.441Z,8.00
2023-05-19T16:06:53.010Z,9.50
2023-05-19T16:09:24.400Z,8.50
2023-05-19T16:11:58.358Z,10.00
2023-05-19T16:14:31.146Z,10.00
2023-05-19T16:17:01.165Z,5.50
2023-05-19T16:19:31.708Z,9.00
2023-05-19T16:22:02.271Z,9.00
2023-05-19T16:24:30.408Z,10.00
2023-05-19T16:26:59.366Z,12.00
2023-05-19T16:29:28.410Z,12.00
2023-05-19T16:31:56.845Z,11.00
2023-05-19T16:34:27.910Z,12.00
2023-05-19T16:36:59.173Z,11.00
2023-05-19T16:39:29.507Z,10.00
2023-05-19T16:46:55.459Z,11.00
2023-05-19T16:49:23.709Z,10.00
2023-05-19T16:51:54.280Z,9.00
2023-05-19T16:54:25.129Z,11.33
2023-05-19T16:56:53.743Z,10.50
2023-05-19T16:59:23.704Z,11.00
2023-05-19T17:01:53.267Z,8.00
2023-05-19T17:04:22.776Z,9.50
2023-05-19T17:06:51.081Z,8.00
2023-05-19T17:09:25.434Z,9.00
2023-05-19T17:11:55.148Z,9.00
2023-05-19T17:14:23.729Z,12.00
2023-05-19T17:16:52.654Z,11.00
2023-05-19T17:19:22.339Z,12.00
2023-05-19T17:21:51.940Z,11.00
2023-05-19T17:26:48.368Z,14.00
2023-05-19T17:31:46.019Z,12.00
2023-05-19T17:34:14.372Z,12.50
2023-05-19T17:36:42.414Z,9.00
2023-05-19T17:41:39.379Z,13.00
2023-05-19T17:46:40.775Z,12.00
2023-05-19T17:49:10.771Z,12.00
2023-05-19T17:51:39.219Z,12.00
2023-05-19T17:54:08.650Z,10.50
2023-05-19T17:56:43.497Z,12.00
2023-05-19T17:59:12.224Z,11.00
2023-05-19T18:01:42.785Z,11.00
2023-05-19T18:04:13.153Z,10.50
2023-05-19T18:06:48.658Z,10.50
2023-05-19T18:09:19.797Z,15.00
2023-05-19T18:11:47.864Z,16.00
2023-05-19T18:14:16.176Z,15.00
2023-05-19T18:16:46.822Z,18.00
2023-05-19T18:19:19.501Z,17.00
2023-05-19T18:24:16.445Z,18.00
2023-05-19T18:26:44.587Z,17.00
2023-05-19T18:31:57.931Z,17.00
2023-05-19T18:36:56.629Z,18.00
2023-05-19T18:41:53.989Z,16.50
2023-05-19T18:44:22.183Z,15.00
2023-05-19T18:46:52.290Z,14.00
2023-05-19T18:49:21.674Z,14.00
2023-05-19T18:51:51.535Z,17.00
2023-05-19T18:54:21.808Z,19.00
2023-05-19T18:59:17.811Z,18.00
2023-05-19T19:01:46.136Z,14.00
2023-05-19T19:04:14.986Z,19.00
2023-05-19T19:06:43.865Z,18.50
2023-05-19T19:09:14.128Z,19.00
2023-05-19T19:11:43.012Z,17.00
2023-05-19T19:14:13.228Z,15.00
2023-05-19T19:16:41.334Z,16.00
2023-05-19T19:19:10.118Z,15.00
2023-05-19T19:21:38.430Z,14.00
2023-05-19T19:24:07.144Z,15.00
2023-05-19T19:26:35.788Z,16.50
2023-05-19T19:29:04.157Z,15.00
2023-05-19T19:31:33.504Z,15.00
2023-05-19T19:34:09.153Z,17.00
2023-05-19T19:39:05.122Z,17.00
2023-05-19T19:41:33.547Z,16.00
2023-05-19T19:44:02.035Z,17.00
2023-05-19T19:49:02.483Z,13.50
2023-05-19T19:51:31.738Z,15.50
2023-05-19T19:54:00.873Z,16.00
2023-05-19T19:56:28.991Z,16.00
2023-05-19T19:58:59.239Z,17.00
2023-05-19T20:06:25.607Z,14.50
2023-05-19T20:08:53.724Z,12.50
2023-05-19T20:11:23.906Z,14.00
2023-05-19T20:13:52.515Z,12.00
2023-05-19T20:16:20.710Z,15.00
2023-05-19T20:18:49.383Z,12.00
2023-05-19T20:21:17.735Z,11.00
2023-05-19T20:23:46.333Z,12.50
2023-05-19T20:26:15.006Z,14.00
2023-05-19T20:28:43.277Z,14.50
2023-05-19T20:33:39.929Z,11.50
2023-05-19T20:36:08.060Z,13.00
2023-05-19T20:38:36.898Z,12.00
2023-05-19T20:41:05.371Z,14.00
2023-05-19T20:43:33.937Z,14.00
2023-05-19T20:46:04.286Z,16.00
2023-05-19T20:48:32.663Z,15.00
2023-05-19T20:51:00.833Z,11.50
2023-05-19T20:53:29.080Z,15.00
2023-05-19T20:55:57.465Z,12.00
2023-05-19T21:00:58.525Z,11.00
2023-05-19T21:03:27.436Z,12.00
2023-05-19T21:08:24.251Z,13.00
2023-05-19T21:10:52.945Z,9.00
2023-05-19T21:13:21.248Z,10.00
2023-05-19T21:15:49.217Z,11.00
2023-05-19T21:18:17.671Z,9.00
2023-05-19T21:20:45.611Z,10.00
2023-05-19T21:23:13.598Z,11.00
2023-05-19T21:25:42.933Z,12.00
2023-05-19T21:28:11.985Z,10.00
2023-05-19T21:30:39.964Z,15.00
2023-05-19T21:33:07.959Z,14.00
2023-05-19T21:40:50.584Z,15.50
2023-05-19T21:43:19.792Z,10.50
2023-05-19T21:45:48.198Z,11.00
2023-05-19T21:48:16.230Z,13.00
2023-05-19T21:50:44.257Z,10.00
2023-05-19T21:53:12.265Z,14.00
2023-05-19T21:55:40.359Z,15.00
2023-05-19T21:58:09.730Z,15.00
2023-05-19T22:00:39.010Z,16.00
2023-05-19T22:03:07.892Z,15.00
2023-05-19T22:05:38.450Z,15.00
2023-05-19T22:08:07.952Z,15.00
2023-05-19T22:10:37.206Z,15.00
2023-05-19T22:13:05.591Z,13.50
2023-05-19T22:15:34.538Z,13.00
2023-05-19T22:18:03.131Z,14.00
2023-05-19T22:20:31.820Z,15.50
2023-05-19T22:23:01.925Z,14.00
2023-05-19T22:27:59.604Z,15.00
2023-05-19T22:30:28.329Z,11.00
2023-05-19T22:35:25.190Z,15.00
2023-05-19T22:37:53.275Z,14.00
2023-05-19T22:40:23.308Z,17.00
2023-05-19T22:42:52.433Z,12.00
2023-05-19T22:45:20.637Z,11.50
2023-05-19T22:47:50.403Z,13.00
2023-05-19T22:50:18.533Z,13.00
2023-05-19T22:55:14.578Z,12.00
2023-05-19T22:57:42.586Z,14.00
2023-05-19T23:00:14.243Z,12.50
2023-05-19T23:02:42.409Z,13.00
2023-05-19T23:05:11.280Z,14.00
2023-05-19T23:07:39.780Z,13.00
2023-05-19T23:10:08.642Z,16.00
2023-05-19T23:12:36.702Z,15.00
2023-05-19T23:15:05.341Z,14.00
2023-05-19T23:17:33.357Z,14.00
2023-05-19T23:20:02.010Z,15.00
2023-05-19T23:22:30.018Z,13.50
2023-05-19T23:24:58.022Z,11.50
2023-05-19T23:27:26.170Z,14.00
2023-05-19T23:29:55.498Z,15.00
2023-05-19T23:32:23.471Z,15.00
2023-05-19T23:34:52.521Z,13.00
2023-05-19T23:39:48.473Z,17.00
2023-05-19T23:42:16.424Z,14.00
2023-05-19T23:44:44.469Z,16.00
2023-05-19T23:47:12.445Z,9.50
2023-05-19T23:49:40.933Z,11.50
2023-05-19T23:54:36.869Z,12.50
